createdAt,value
2018-08-19T00:02:19.961Z,19.10
2018-08-19T00:05:08.593Z,18.82
2018-08-19T00:07:37.863Z,18.85
2018-08-19T00:10:07.610Z,19.05
2018-08-19T00:12:39.929Z,16.97
2018-08-19T00:15:09.229Z,18.70
2018-08-19T00:17:38.497Z,17.32
2018-08-19T00:20:11.655Z,18.23
2018-08-19T00:22:40.980Z,18.48
2018-08-19T00:25:16.083Z,17.52
2018-08-19T00:27:45.352Z,18.73
2018-08-19T00:30:14.604Z,18.48
2018-08-19T00:32:43.837Z,19.37
2018-08-19T00:35:13.054Z,18.62
2018-08-19T00:37:42.315Z,17.55
2018-08-19T00:40:12.592Z,18.45
2018-08-19T00:42:44.454Z,18.62
2018-08-19T00:45:14.272Z,19.17
2018-08-19T00:47:43.497Z,18.92
2018-08-19T00:50:12.756Z,19.23
2018-08-19T00:52:42.309Z,18.15
2018-08-19T00:55:11.607Z,18.73
2018-08-19T00:57:43.217Z,18.10
2018-08-19T01:00:12.469Z,17.92
2018-08-19T01:02:41.718Z,17.75
2018-08-19T01:05:10.963Z,18.15
2018-08-19T01:07:40.231Z,18.65
2018-08-19T01:10:09.997Z,18.15
2018-08-19T01:12:39.273Z,18.07
2018-08-19T01:15:13.218Z,19.20
2018-08-19T01:17:43.407Z,17.42
2018-08-19T01:20:19.395Z,17.82
2018-08-19T01:22:48.702Z,18.67
2018-08-19T01:25:18.193Z,20.40
2018-08-19T01:27:47.457Z,19.23
2018-08-19T01:30:21.224Z,18.62
2018-08-19T01:32:50.499Z,19.57
2018-08-19T01:35:27.263Z,18.57
2018-08-19T01:37:56.524Z,18.95
2018-08-19T01:40:26.845Z,18.17
2018-08-19T01:42:56.092Z,17.57
2018-08-19T01:45:25.370Z,17.82
2018-08-19T01:47:54.627Z,17.32
2018-08-19T01:50:23.927Z,17.55
2018-08-19T01:52:53.172Z,18.70
2018-08-19T01:55:22.440Z,19.60
2018-08-19T01:57:51.997Z,19.32
2018-08-19T02:00:21.287Z,18.90
2018-08-19T02:03:02.295Z,19.20
2018-08-19T02:05:31.572Z,19.02
2018-08-19T02:08:02.210Z,18.82
2018-08-19T02:10:33.132Z,18.73
2018-08-19T02:13:02.784Z,19.32
2018-08-19T02:15:32.812Z,18.45
2018-08-19T02:18:03.358Z,18.00
2018-08-19T02:20:39.913Z,18.45
2018-08-19T02:23:10.880Z,18.12
2018-08-19T02:25:44.459Z,19.87
2018-08-19T02:28:14.320Z,19.60
2018-08-19T02:31:02.633Z,18.77
2018-08-19T02:33:35.646Z,19.05
2018-08-19T02:36:06.538Z,18.92
2018-08-19T02:38:36.768Z,19.98
2018-08-19T02:41:06.872Z,19.07
2018-08-19T02:43:44.347Z,19.02
2018-08-19T02:46:13.647Z,19.12
2018-08-19T02:48:47.705Z,18.57
2018-08-19T02:51:18.302Z,18.80
2018-08-19T02:53:48.714Z,18.57
2018-08-19T02:56:18.755Z,19.00
2018-08-19T02:58:48.564Z,19.48
2018-08-19T03:01:18.630Z,19.55
2018-08-19T03:03:48.816Z,18.48
2018-08-19T03:06:18.084Z,18.95
2018-08-19T03:09:02.942Z,18.17
2018-08-19T03:11:32.224Z,18.50
2018-08-19T03:14:01.489Z,18.57
2018-08-19T03:16:30.769Z,19.30
2018-08-19T03:19:00.043Z,18.77
2018-08-19T03:21:29.369Z,18.67
2018-08-19T03:23:58.614Z,19.40
2018-08-19T03:26:29.872Z,20.08
2018-08-19T03:29:04.263Z,20.12
2018-08-19T03:31:33.529Z,17.52
2018-08-19T03:34:02.790Z,20.60
2018-08-19T03:36:32.044Z,18.52
2018-08-19T03:39:16.389Z,19.65
2018-08-19T03:41:46.244Z,18.40
2018-08-19T03:44:15.504Z,18.77
2018-08-19T03:46:44.746Z,18.00
2018-08-19T03:49:13.964Z,18.87
2018-08-19T03:51:43.391Z,17.45
2018-08-19T03:54:12.624Z,18.40
2018-08-19T03:56:41.868Z,19.27
2018-08-19T03:59:13.081Z,17.62
2018-08-19T04:01:44.722Z,18.07
2018-08-19T04:04:16.778Z,17.23
2018-08-19T04:06:46.058Z,18.73
2018-08-19T04:09:15.292Z,18.23
2018-08-19T04:11:46.974Z,19.23
2018-08-19T04:14:28.472Z,18.32
2018-08-19T04:16:59.639Z,18.92
2018-08-19T04:19:29.470Z,19.10
2018-08-19T04:22:01.699Z,17.90
2018-08-19T04:24:31.561Z,17.92
2018-08-19T04:27:07.283Z,18.98
2018-08-19T04:29:37.050Z,19.10
2018-08-19T04:32:11.198Z,17.67
2018-08-19T04:34:41.407Z,17.85
2018-08-19T04:37:10.702Z,17.60
2018-08-19T04:39:40.015Z,17.73
2018-08-19T04:42:09.344Z,18.00
2018-08-19T04:44:38.574Z,17.85
2018-08-19T04:47:24.926Z,18.02
2018-08-19T04:49:54.208Z,17.92
2018-08-19T04:52:24.632Z,17.32
2018-08-19T04:54:55.088Z,18.20
2018-08-19T04:57:24.327Z,17.50
2018-08-19T04:59:53.736Z,18.15
2018-08-19T05:02:23.524Z,17.55
2018-08-19T05:04:52.705Z,17.00
2018-08-19T05:07:21.947Z,17.20
2018-08-19T05:09:51.195Z,17.23
2018-08-19T05:12:20.464Z,16.10
2018-08-19T05:14:49.697Z,17.12
2018-08-19T05:17:18.936Z,17.40
2018-08-19T05:19:48.201Z,16.80
2018-08-19T05:22:17.489Z,19.57
2018-08-19T05:24:46.825Z,18.42
2018-08-19T05:27:17.637Z,18.52
2018-08-19T05:29:46.852Z,18.32
2018-08-19T05:32:16.109Z,18.30
2018-08-19T05:34:46.226Z,17.50
2018-08-19T05:37:15.457Z,17.10
2018-08-19T05:39:49.954Z,17.95
2018-08-19T05:42:19.235Z,18.00
2018-08-19T05:44:48.530Z,17.15
2018-08-19T05:47:18.125Z,17.45
2018-08-19T05:49:48.343Z,17.82
2018-08-19T05:52:24.553Z,15.65
2018-08-19T05:54:56.990Z,17.42
2018-08-19T05:57:26.509Z,18.07
2018-08-19T05:59:56.393Z,17.75
2018-08-19T06:02:32.558Z,16.73
2018-08-19T06:05:03.149Z,16.48
2018-08-19T06:07:32.485Z,16.27
2018-08-19T06:10:01.834Z,16.65
2018-08-19T06:12:31.137Z,17.07
2018-08-19T06:15:01.637Z,17.32
2018-08-19T06:17:30.967Z,17.62
2018-08-19T06:20:00.227Z,17.75
2018-08-19T06:22:34.691Z,18.87
2018-08-19T06:25:04.008Z,17.50
2018-08-19T06:27:41.350Z,17.70
2018-08-19T06:30:10.643Z,20.52
2018-08-19T06:32:40.048Z,19.65
2018-08-19T06:35:09.610Z,20.08
2018-08-19T06:37:38.858Z,19.77
2018-08-19T06:40:10.773Z,20.77
2018-08-19T06:42:40.039Z,20.82
2018-08-19T06:45:10.336Z,21.87
2018-08-19T06:47:39.698Z,21.02
2018-08-19T06:50:26.329Z,21.57
2018-08-19T06:52:56.364Z,19.45
2018-08-19T06:55:26.383Z,19.95
2018-08-19T06:57:58.898Z,20.48
2018-08-19T07:00:30.124Z,20.68
2018-08-19T07:03:02.007Z,21.70
2018-08-19T07:05:31.799Z,20.35
2018-08-19T07:08:01.285Z,19.70
2018-08-19T07:10:35.626Z,20.17
2018-08-19T07:13:06.566Z,20.55
2018-08-19T07:15:37.252Z,21.48
2018-08-19T07:18:08.444Z,20.82
2018-08-19T07:20:38.540Z,21.27
2018-08-19T07:23:08.877Z,21.02
2018-08-19T07:25:41.399Z,20.62
2018-08-19T07:28:12.094Z,21.02
2018-08-19T07:30:41.812Z,20.72
2018-08-19T07:33:11.556Z,20.10
2018-08-19T07:35:41.058Z,20.57
2018-08-19T07:38:10.799Z,20.70
2018-08-19T07:40:40.025Z,20.32
2018-08-19T07:43:09.301Z,19.92
2018-08-19T07:45:38.529Z,19.95
2018-08-19T07:48:09.625Z,19.55
2018-08-19T07:50:39.024Z,19.02
2018-08-19T07:53:08.289Z,18.67
2018-08-19T07:55:37.593Z,19.05
2018-08-19T07:58:06.946Z,18.82
2018-08-19T08:00:39.111Z,17.42
2018-08-19T08:03:08.621Z,20.30
2018-08-19T08:05:43.036Z,17.55
2018-08-19T08:08:18.801Z,18.10
2018-08-19T08:10:48.103Z,17.17
2018-08-19T08:13:17.472Z,16.93
2018-08-19T08:15:52.090Z,15.95
2018-08-19T08:18:21.392Z,16.00
2018-08-19T08:20:52.382Z,16.05
2018-08-19T08:23:24.139Z,15.80
2018-08-19T08:25:53.391Z,15.18
2018-08-19T08:28:22.681Z,15.03
2018-08-19T08:30:51.886Z,15.03
2018-08-19T08:33:21.186Z,14.73
2018-08-19T08:35:56.414Z,15.23
2018-08-19T08:38:25.853Z,15.15
2018-08-19T08:40:55.668Z,15.80
2018-08-19T08:43:25.046Z,13.58
2018-08-19T08:45:57.253Z,12.98
2018-08-19T08:48:26.777Z,14.75
2018-08-19T08:50:56.221Z,14.87
2018-08-19T08:53:32.217Z,14.78
2018-08-19T08:56:01.517Z,13.98
2018-08-19T08:58:30.764Z,13.50
2018-08-19T09:01:00.614Z,12.70
2018-08-19T09:03:29.982Z,12.80
2018-08-19T09:05:59.329Z,13.53
2018-08-19T09:08:28.887Z,11.35
2018-08-19T09:10:59.889Z,10.75
2018-08-19T09:13:29.154Z,10.90
2018-08-19T09:15:58.400Z,10.10
2018-08-19T09:18:28.001Z,10.05
2018-08-19T09:20:57.258Z,10.08
2018-08-19T09:23:26.632Z,10.60
2018-08-19T09:25:55.938Z,9.43
2018-08-19T09:28:25.218Z,9.05
2018-08-19T09:30:54.533Z,9.33
2018-08-19T09:33:23.789Z,9.28
2018-08-19T09:35:53.028Z,9.43
2018-08-19T09:38:23.258Z,9.85
2018-08-19T09:40:52.857Z,9.28
2018-08-19T09:43:22.096Z,9.73
2018-08-19T09:45:51.772Z,9.38
2018-08-19T09:48:21.636Z,8.95
2018-08-19T09:50:50.929Z,8.80
2018-08-19T09:53:20.365Z,9.25
2018-08-19T09:55:56.045Z,7.47
2018-08-19T09:58:26.216Z,7.17
2018-08-19T10:01:01.120Z,7.55
2018-08-19T10:03:32.796Z,7.55
2018-08-19T10:06:02.156Z,8.33
2018-08-19T10:08:31.607Z,7.17
2018-08-19T10:11:01.134Z,6.53
2018-08-19T10:13:30.631Z,7.78
2018-08-19T10:16:00.373Z,8.68
2018-08-19T10:18:29.925Z,7.67
2018-08-19T10:21:04.811Z,8.15
2018-08-19T10:23:34.139Z,7.97
2018-08-19T10:26:03.876Z,8.95
2018-08-19T10:28:33.296Z,7.05
2018-08-19T10:31:03.093Z,7.72
2018-08-19T10:33:32.846Z,7.28
2018-08-19T10:36:02.666Z,6.78
2018-08-19T10:38:32.064Z,7.40
2018-08-19T10:41:06.028Z,8.10
2018-08-19T10:43:35.676Z,7.15
2018-08-19T10:46:05.285Z,7.75
2018-08-19T10:48:34.757Z,6.80
2018-08-19T10:51:04.458Z,6.85
2018-08-19T10:53:33.760Z,7.53
2018-08-19T10:56:04.121Z,7.00
2018-08-19T10:58:33.561Z,7.97
2018-08-19T11:01:03.406Z,7.15
2018-08-19T11:03:33.330Z,7.50
2018-08-19T11:06:03.149Z,7.60
2018-08-19T11:08:32.597Z,6.92
2018-08-19T11:11:01.865Z,7.50
2018-08-19T11:13:31.194Z,6.12
2018-08-19T11:16:00.452Z,6.75
2018-08-19T11:18:42.875Z,6.28
2018-08-19T11:21:15.460Z,6.70
2018-08-19T11:23:46.177Z,7.08
2018-08-19T11:26:15.529Z,7.47
2018-08-19T11:28:48.380Z,7.03
2018-08-19T11:31:27.582Z,6.78
2018-08-19T11:33:59.647Z,7.50
2018-08-19T11:36:35.730Z,7.05
2018-08-19T11:39:14.701Z,6.87
2018-08-19T11:41:43.935Z,6.67
2018-08-19T11:44:15.549Z,7.12
2018-08-19T11:46:44.804Z,6.62
2018-08-19T11:49:15.467Z,6.22
2018-08-19T11:51:51.241Z,5.87
2018-08-19T11:54:21.709Z,5.78
2018-08-19T11:56:57.752Z,5.17
2018-08-19T11:59:32.412Z,5.75
2018-08-19T12:02:01.942Z,8.05
2018-08-19T12:04:31.262Z,5.97
2018-08-19T12:07:00.513Z,6.28
2018-08-19T12:09:29.890Z,6.40
2018-08-19T12:11:59.182Z,6.45
2018-08-19T12:14:28.602Z,6.12
2018-08-19T12:16:59.225Z,6.25
2018-08-19T12:19:29.618Z,6.10
2018-08-19T12:22:02.830Z,6.42
2018-08-19T12:24:42.074Z,5.97
2018-08-19T12:27:12.736Z,6.70
2018-08-19T12:29:42.882Z,6.08
2018-08-19T12:32:21.979Z,5.75
2018-08-19T12:34:54.419Z,5.20
2018-08-19T12:37:24.980Z,5.92
2018-08-19T12:39:54.817Z,5.40
2018-08-19T12:42:24.493Z,5.40
2018-08-19T12:45:13.533Z,5.17
2018-08-19T12:47:42.777Z,4.62
2018-08-19T12:50:15.111Z,4.53
2018-08-19T12:52:44.460Z,4.60
2018-08-19T12:55:16.249Z,4.25
2018-08-19T12:57:46.069Z,4.70
2018-08-19T13:00:25.483Z,4.55
2018-08-19T13:02:55.033Z,4.30
2018-08-19T13:05:24.575Z,4.80
2018-08-19T13:07:53.920Z,4.05
2018-08-19T13:10:23.637Z,5.30
2018-08-19T13:12:55.152Z,4.00
2018-08-19T13:15:26.443Z,4.12
2018-08-19T13:17:55.792Z,3.98
2018-08-19T13:20:25.054Z,4.30
2018-08-19T13:22:59.768Z,3.83
2018-08-19T13:25:29.440Z,3.62
2018-08-19T13:27:58.957Z,3.95
2018-08-19T13:30:28.289Z,4.25
2018-08-19T13:32:57.554Z,4.03
2018-08-19T13:35:26.942Z,3.98
2018-08-19T13:37:56.265Z,4.05
2018-08-19T13:40:25.535Z,4.05
2018-08-19T13:42:54.758Z,3.80
2018-08-19T13:45:26.681Z,3.35
2018-08-19T13:47:55.853Z,3.55
2018-08-19T13:50:25.153Z,3.95
2018-08-19T13:52:54.413Z,4.42
2018-08-19T13:55:23.685Z,4.15
2018-08-19T13:57:52.902Z,3.70
2018-08-19T14:00:23.918Z,3.45
2018-08-19T14:02:53.340Z,3.52
2018-08-19T14:05:22.589Z,3.50
2018-08-19T14:07:51.858Z,3.70
2018-08-19T14:10:21.094Z,3.67
2018-08-19T14:12:50.353Z,3.20
2018-08-19T14:15:19.593Z,3.67
2018-08-19T14:17:48.921Z,3.40
2018-08-19T14:20:18.214Z,3.47
2018-08-19T14:22:47.468Z,3.75
2018-08-19T14:25:16.713Z,3.77
2018-08-19T14:27:45.942Z,3.30
2018-08-19T14:30:15.358Z,3.80
2018-08-19T14:32:45.743Z,3.25
2018-08-19T14:35:15.012Z,3.52
2018-08-19T14:37:44.309Z,3.37
2018-08-19T14:40:17.776Z,3.75
2018-08-19T14:42:47.396Z,3.65
2018-08-19T14:45:16.709Z,3.33
2018-08-19T14:47:45.980Z,3.65
2018-08-19T14:50:17.634Z,3.70
2018-08-19T14:52:46.916Z,3.02
2018-08-19T14:55:16.134Z,3.12
2018-08-19T14:57:45.435Z,3.10
2018-08-19T15:00:16.440Z,3.15
2018-08-19T15:02:45.776Z,3.05
2018-08-19T15:05:19.373Z,3.00
2018-08-19T15:07:49.185Z,3.17
2018-08-19T15:10:22.071Z,3.25
2018-08-19T15:12:51.369Z,3.10
2018-08-19T15:15:20.714Z,2.70
2018-08-19T15:17:55.294Z,3.22
2018-08-19T15:20:29.838Z,3.30
2018-08-19T15:23:14.653Z,3.62
2018-08-19T15:25:44.226Z,2.95
2018-08-19T15:28:13.482Z,3.75
2018-08-19T15:30:43.046Z,2.90
2018-08-19T15:33:13.447Z,3.00
2018-08-19T15:35:43.153Z,3.58
2018-08-19T15:38:13.043Z,2.90
2018-08-19T15:40:47.066Z,3.42
2018-08-19T15:43:16.347Z,2.55
2018-08-19T15:45:45.973Z,3.27
2018-08-19T15:48:15.254Z,3.30
2018-08-19T15:50:44.506Z,2.87
2018-08-19T15:53:13.770Z,3.65
2018-08-19T15:55:43.025Z,2.72
2018-08-19T15:58:12.268Z,3.10
2018-08-19T16:00:42.472Z,3.02
2018-08-19T16:03:12.930Z,3.25
2018-08-19T16:05:42.164Z,3.40
2018-08-19T16:08:11.754Z,2.58
2018-08-19T16:10:43.228Z,3.12
2018-08-19T16:13:12.899Z,3.15
2018-08-19T16:15:42.190Z,3.10
2018-08-19T16:18:11.977Z,3.20
2018-08-19T16:20:44.189Z,2.83
2018-08-19T16:23:13.460Z,3.92
2018-08-19T16:25:42.717Z,3.27
2018-08-19T16:28:11.970Z,3.83
2018-08-19T16:30:41.216Z,3.33
2018-08-19T16:33:10.474Z,2.90
2018-08-19T16:35:39.741Z,3.15
2018-08-19T16:38:09.074Z,3.10
2018-08-19T16:40:38.447Z,3.45
2018-08-19T16:43:07.713Z,3.20
2018-08-19T16:45:36.986Z,3.10
2018-08-19T16:48:06.695Z,3.52
2018-08-19T16:50:36.104Z,2.72
2018-08-19T16:53:06.357Z,3.58
2018-08-19T16:55:35.705Z,3.25
2018-08-19T16:58:05.065Z,2.90
2018-08-19T17:00:34.377Z,2.98
2018-08-19T17:03:26.768Z,2.70
2018-08-19T17:05:56.669Z,3.87
2018-08-19T17:08:25.950Z,4.42
2018-08-19T17:10:55.431Z,3.40
2018-08-19T17:13:25.290Z,3.37
2018-08-19T17:15:54.797Z,3.35
2018-08-19T17:18:24.252Z,3.52
2018-08-19T17:20:53.708Z,2.83
2018-08-19T17:23:24.215Z,3.50
2018-08-19T17:25:53.557Z,3.17
2018-08-19T17:28:24.267Z,3.33
2018-08-19T17:30:55.178Z,4.00
2018-08-19T17:33:27.258Z,3.65
2018-08-19T17:35:56.724Z,3.60
2018-08-19T17:38:31.301Z,3.50
2018-08-19T17:41:01.182Z,3.45
2018-08-19T17:43:34.672Z,3.25
2018-08-19T17:46:10.572Z,3.27
2018-08-19T17:48:40.977Z,4.30
2018-08-19T17:51:27.269Z,3.50
2018-08-19T17:53:56.569Z,3.58
2018-08-19T17:56:25.922Z,3.20
2018-08-19T17:58:55.219Z,3.50
2018-08-19T18:01:24.527Z,2.85
2018-08-19T18:03:53.978Z,3.92
2018-08-19T18:06:23.254Z,3.42
2018-08-19T18:08:53.289Z,3.77
2018-08-19T18:11:22.784Z,3.67
2018-08-19T18:13:52.033Z,3.20
2018-08-19T18:16:21.231Z,3.12
2018-08-19T18:18:50.456Z,3.35
2018-08-19T18:21:19.677Z,3.58
2018-08-19T18:23:49.815Z,3.33
2018-08-19T18:26:19.053Z,3.58
2018-08-19T18:28:48.884Z,3.58
2018-08-19T18:31:22.820Z,3.45
2018-08-19T18:33:59.239Z,3.65
2018-08-19T18:36:30.258Z,3.67
2018-08-19T18:38:59.939Z,5.60
2018-08-19T18:41:35.225Z,3.95
2018-08-19T18:44:06.093Z,3.98
2018-08-19T18:46:41.867Z,3.90
2018-08-19T18:49:12.929Z,4.62
2018-08-19T18:51:49.572Z,4.58
2018-08-19T18:54:32.516Z,4.67
2018-08-19T18:57:07.818Z,4.20
2018-08-19T18:59:41.509Z,4.30
2018-08-19T19:02:10.719Z,4.80
2018-08-19T19:04:40.363Z,4.35
2018-08-19T19:07:09.752Z,4.12
2018-08-19T19:09:44.245Z,3.98
2018-08-19T19:12:13.470Z,3.90
2018-08-19T19:14:42.830Z,4.75
2018-08-19T19:17:12.153Z,5.90
2018-08-19T19:19:49.981Z,3.95
2018-08-19T19:22:19.196Z,4.65
2018-08-19T19:24:51.840Z,4.25
2018-08-19T19:27:21.061Z,5.47
2018-08-19T19:29:55.679Z,4.30
2018-08-19T19:32:25.733Z,5.62
2018-08-19T19:34:54.971Z,4.90
2018-08-19T19:37:24.282Z,4.97
2018-08-19T19:40:00.719Z,4.08
2018-08-19T19:42:29.987Z,4.62
2018-08-19T19:44:59.414Z,4.72
2018-08-19T19:47:28.704Z,8.05
2018-08-19T19:49:58.988Z,4.83
2018-08-19T19:52:28.787Z,6.12
2018-08-19T19:54:58.417Z,6.20
2018-08-19T19:57:27.658Z,4.50
2018-08-19T19:59:56.952Z,6.37
2018-08-19T20:02:29.633Z,4.22
2018-08-19T20:04:59.273Z,7.28
2018-08-19T20:07:28.973Z,4.60
2018-08-19T20:09:58.400Z,6.50
2018-08-19T20:12:27.692Z,6.17
2018-08-19T20:14:57.978Z,4.45
2018-08-19T20:17:27.243Z,4.58
2018-08-19T20:19:56.528Z,5.08
2018-08-19T20:22:25.803Z,4.78
2018-08-19T20:24:55.038Z,6.47
2018-08-19T20:27:24.297Z,5.72
2018-08-19T20:29:54.748Z,5.20
2018-08-19T20:32:24.027Z,5.00
2018-08-19T20:34:53.276Z,5.05
2018-08-19T20:37:24.309Z,5.90
2018-08-19T20:39:54.144Z,4.83
2018-08-19T20:42:23.456Z,4.70
2018-08-19T20:44:52.721Z,5.08
2018-08-19T20:47:21.920Z,5.12
2018-08-19T20:49:51.411Z,4.85
2018-08-19T20:52:56.317Z,5.75
2018-08-19T20:55:26.013Z,5.58
2018-08-19T20:57:55.258Z,5.55
2018-08-19T21:00:24.574Z,5.05
2018-08-19T21:02:53.806Z,6.28
2018-08-19T21:05:23.047Z,5.90
2018-08-19T21:07:54.877Z,4.70
2018-08-19T21:10:24.114Z,5.10
2018-08-19T21:12:53.308Z,4.97
2018-08-19T21:15:26.917Z,5.10
2018-08-19T21:17:57.171Z,5.10
2018-08-19T21:20:26.479Z,5.08
2018-08-19T21:22:55.814Z,5.22
2018-08-19T21:25:25.880Z,6.37
2018-08-19T21:27:55.317Z,5.55
2018-08-19T21:30:26.747Z,4.90
2018-08-19T21:32:56.923Z,5.15
2018-08-19T21:35:26.486Z,5.08
2018-08-19T21:37:55.733Z,5.50
2018-08-19T21:40:42.716Z,5.08
2018-08-19T21:43:18.174Z,6.62
2018-08-19T21:45:48.613Z,5.28
2018-08-19T21:48:17.849Z,5.42
2018-08-19T21:50:47.117Z,5.62
2018-08-19T21:53:17.738Z,7.55
2018-08-19T21:55:48.314Z,5.97
2018-08-19T21:58:17.561Z,5.37
2018-08-19T22:00:59.106Z,6.08
2018-08-19T22:03:34.127Z,5.72
2018-08-19T22:06:08.356Z,6.53
2018-08-19T22:08:41.294Z,5.65
2018-08-19T22:11:10.777Z,5.50
2018-08-19T22:13:39.997Z,5.50
2018-08-19T22:16:09.275Z,6.47
2018-08-19T22:18:38.499Z,8.83
2018-08-19T22:21:22.187Z,5.85
2018-08-19T22:23:54.958Z,5.83
2018-08-19T22:26:24.221Z,5.70
2018-08-19T22:29:19.733Z,6.47
2018-08-19T22:31:51.793Z,6.30
2018-08-19T22:34:21.064Z,7.15
2018-08-19T22:36:50.286Z,7.55
2018-08-19T22:39:20.427Z,9.50
2018-08-19T22:41:51.336Z,8.33
2018-08-19T22:44:20.551Z,6.90
2018-08-19T22:46:49.816Z,6.70
2018-08-19T22:49:19.024Z,7.17
2018-08-19T22:51:48.297Z,7.03
2018-08-19T22:54:17.585Z,6.55
2018-08-19T22:56:46.824Z,6.35
2018-08-19T22:59:16.050Z,5.70
2018-08-19T23:01:48.786Z,6.10
2018-08-19T23:04:18.079Z,6.60
2018-08-19T23:06:47.346Z,7.72
2018-08-19T23:09:16.543Z,6.35
2018-08-19T23:11:46.648Z,5.80
2018-08-19T23:14:32.811Z,6.60
2018-08-19T23:17:02.149Z,6.12
2018-08-19T23:19:31.376Z,6.37
2018-08-19T23:22:00.661Z,7.12
2018-08-19T23:24:29.956Z,5.70
2018-08-19T23:26:59.219Z,6.00
2018-08-19T23:29:28.435Z,6.05
2018-08-19T23:31:57.702Z,6.37
2018-08-19T23:34:27.213Z,5.97
2018-08-19T23:36:56.554Z,6.37
2018-08-19T23:39:25.790Z,6.65
2018-08-19T23:41:55.027Z,7.53
2018-08-19T23:44:24.264Z,6.55
2018-08-19T23:46:53.505Z,7.40
2018-08-19T23:49:22.717Z,7.78
2018-08-19T23:51:51.935Z,6.50
2018-08-19T23:54:21.148Z,6.15
2018-08-19T23:56:50.479Z,6.95
2018-08-19T23:59:26.707Z,6.42
